Capt. Gregory Smith — WDC6542 — position and weather

sailwx.info

Track history (hours):
 
Tides and Currents Weather Stations Pressure Air Temp Water Temp Dewpoint Dewpoint Depression Visibility Wind Speed Wind Dir Waves Ship Positions

Capt. Gregory Smith

Owner: American Commercial Lines LLC, Jeffersonville, IN. More information available from US FCC via Universal Licensing System and Coast Guard Vessel Documentation Center.

Last reported at 2017-Nov-17 02:27 UTC. Time now 2017-Nov-24 16:43 UTC.
Position N 32°57' W 091°05'.

Length 55 m; draft 3.4 m.

Type: Towing. MMSI: 367057690.

Date/timePositionNaut miles runAvg speedWind from/ knotsBaromVisibWave heightAir tempDewpointWater temp
2017-Nov-17 02:27N 32°57' W 091°05'11 3.2
2017-Nov-16 23:03N 32°47' W 091°09'1 3.3
2017-Nov-16 22:54N 32°46' W 091°09'5 2.9
2017-Nov-16 21:13N 32°44' W 091°04'5 3.0
2017-Nov-16 19:33N 32°40' W 091°08'0 4.0
2017-Nov-16 19:30N 32°40' W 091°08'2 3.6
2017-Nov-16 18:53N 32°38' W 091°09'2 4.3
2017-Nov-16 18:31N 32°36' W 091°09'2 3.5
2017-Nov-16 18:01N 32°35' W 091°07'1 2.9
2017-Nov-16 17:30N 32°34' W 091°06'2 3.3
2017-Nov-16 17:00N 32°32' W 091°06'2 3.6
2017-Nov-16 16:30N 32°31' W 091°07'2 4.1
2017-Nov-16 16:01N 32°29' W 091°07'2 4.1
2017-Nov-16 15:30N 32°27' W 091°05'2 3.9
2017-Nov-16 15:01N 32°26' W 091°03'2 3.9
2017-Nov-16 14:31N 32°26' W 091°01'2 3.5
2017-Nov-16 14:01N 32°24' W 090°59'1 2.4
2017-Nov-16 13:31N 32°23' W 090°60'1 2.0
2017-Nov-16 13:00N 32°22' W 091°00'0 0.8
2017-Nov-16 12:31N 32°22' W 091°00'2 3.7
2017-Nov-16 12:01N 32°21' W 090°58'2 4.1
2017-Nov-16 11:30N 32°21' W 090°56'2 3.6
2017-Nov-16 11:00N 32°20' W 090°54'2 3.7
2017-Nov-16 10:31N 32°18' W 090°55'1 1.8
2017-Nov-16 10:00N 32°18' W 090°56'2 4.2
2017-Nov-16 09:31N 32°16' W 090°58'2 3.6
2017-Nov-16 09:00N 32°15' W 090°59'2 3.8
2017-Nov-16 08:31N 32°13' W 090°59'2 4.0
2017-Nov-16 08:00N 32°11' W 090°60'2 3.8
2017-Nov-16 07:30N 32°09' W 091°00'2 3.7
2017-Nov-16 07:00N 32°07' W 091°01'2 3.6
2017-Nov-16 06:30N 32°08' W 091°03'2 4.3
2017-Nov-16 06:00N 32°08' W 091°06'2 3.2
2017-Nov-16 05:31N 32°07' W 091°06'3 4.4
2017-Nov-16 04:43N 32°04' W 091°04'1 3.3
2017-Nov-16 04:29N 32°03' W 091°03'2 4.0
2017-Nov-16 04:00N 32°01' W 091°04'3 4.4
2017-Nov-16 03:24N 31°59' W 091°06'  
2017-Nov-10 07:26N 31°42' W 091°24'6 7.4
2017-Nov-10 06:37N 31°47' W 091°22'1 7.6
2017-Nov-10 06:25N 31°49' W 091°21'12 6.7
2017-Nov-10 04:37N 31°57' W 091°11'1 7.7
2017-Nov-10 04:28N 31°58' W 091°11'4 7.2
2017-Nov-10 03:52N 31°59' W 091°06'3 8.1
2017-Nov-10 03:30N 32°02' W 091°04'4 7.1
2017-Nov-10 02:59N 32°05' W 091°05'2 5.2
2017-Nov-10 02:31N 32°08' W 091°06'3 5.2
2017-Nov-10 02:01N 32°07' W 091°03'3 6.4
2017-Nov-10 01:30N 32°09' W 091°00'4 8.2
2017-Nov-10 01:01N 32°13' W 090°59'4 7.8
2017-Nov-10 00:31N 32°17' W 090°57'4 7.6
2017-Nov-10 00:00N 32°20' W 090°54'1 2.7
2017-Nov-09 23:31N 32°21' W 090°55'4 7.1
2017-Nov-09 23:01N 32°21' W 090°59'3 6.6
2017-Nov-09 22:31N 32°24' W 090°59'4 7.5
2017-Nov-09 22:01N 32°26' W 091°03'4 7.6
2017-Nov-09 21:30N 32°29' W 091°07'4 7.9
2017-Nov-09 20:58N 32°33' W 091°06'3 6.5
2017-Nov-09 20:31N 32°35' W 091°08'  
Track history (hours):
 
Tides and Currents Weather Stations Pressure Air Temp Water Temp Dewpoint Dewpoint Depression Visibility Wind Speed Wind Dir Waves Ship Positions

Capt. Gregory Smith

Owner: American Commercial Lines LLC, Jeffersonville, IN. More information available from US FCC via Universal Licensing System and Coast Guard Vessel Documentation Center.

Last reported at 2017-Nov-17 02:27 UTC. Time now 2017-Nov-24 16:43 UTC.
Position N 32°57' W 091°05'.

Length 55 m; draft 3.4 m.

Type: Towing. MMSI: 367057690.

Date/timePositionNaut miles runAvg speedWind from/ knotsBaromVisibWave heightAir tempDewpointWater temp
2017-Nov-17 02:27N 32°57' W 091°05'11 3.2
2017-Nov-16 23:03N 32°47' W 091°09'1 3.3
2017-Nov-16 22:54N 32°46' W 091°09'5 2.9
2017-Nov-16 21:13N 32°44' W 091°04'5 3.0
2017-Nov-16 19:33N 32°40' W 091°08'0 4.0
2017-Nov-16 19:30N 32°40' W 091°08'2 3.6
2017-Nov-16 18:53N 32°38' W 091°09'2 4.3
2017-Nov-16 18:31N 32°36' W 091°09'2 3.5
2017-Nov-16 18:01N 32°35' W 091°07'1 2.9
2017-Nov-16 17:30N 32°34' W 091°06'2 3.3
2017-Nov-16 17:00N 32°32' W 091°06'2 3.6
2017-Nov-16 16:30N 32°31' W 091°07'2 4.1
2017-Nov-16 16:01N 32°29' W 091°07'2 4.1
2017-Nov-16 15:30N 32°27' W 091°05'2 3.9
2017-Nov-16 15:01N 32°26' W 091°03'2 3.9
2017-Nov-16 14:31N 32°26' W 091°01'2 3.5
2017-Nov-16 14:01N 32°24' W 090°59'1 2.4
2017-Nov-16 13:31N 32°23' W 090°60'1 2.0
2017-Nov-16 13:00N 32°22' W 091°00'0 0.8
2017-Nov-16 12:31N 32°22' W 091°00'2 3.7
2017-Nov-16 12:01N 32°21' W 090°58'2 4.1
2017-Nov-16 11:30N 32°21' W 090°56'2 3.6
2017-Nov-16 11:00N 32°20' W 090°54'2 3.7
2017-Nov-16 10:31N 32°18' W 090°55'1 1.8
2017-Nov-16 10:00N 32°18' W 090°56'2 4.2
2017-Nov-16 09:31N 32°16' W 090°58'2 3.6
2017-Nov-16 09:00N 32°15' W 090°59'2 3.8
2017-Nov-16 08:31N 32°13' W 090°59'2 4.0
2017-Nov-16 08:00N 32°11' W 090°60'2 3.8
2017-Nov-16 07:30N 32°09' W 091°00'2 3.7
2017-Nov-16 07:00N 32°07' W 091°01'2 3.6
2017-Nov-16 06:30N 32°08' W 091°03'2 4.3
2017-Nov-16 06:00N 32°08' W 091°06'2 3.2
2017-Nov-16 05:31N 32°07' W 091°06'3 4.4
2017-Nov-16 04:43N 32°04' W 091°04'1 3.3
2017-Nov-16 04:29N 32°03' W 091°03'2 4.0
2017-Nov-16 04:00N 32°01' W 091°04'3 4.4
2017-Nov-16 03:24N 31°59' W 091°06'  
2017-Nov-10 07:26N 31°42' W 091°24'6 7.4
2017-Nov-10 06:37N 31°47' W 091°22'1 7.6
2017-Nov-10 06:25N 31°49' W 091°21'12 6.7
2017-Nov-10 04:37N 31°57' W 091°11'1 7.7
2017-Nov-10 04:28N 31°58' W 091°11'4 7.2
2017-Nov-10 03:52N 31°59' W 091°06'3 8.1
2017-Nov-10 03:30N 32°02' W 091°04'4 7.1
2017-Nov-10 02:59N 32°05' W 091°05'2 5.2
2017-Nov-10 02:31N 32°08' W 091°06'3 5.2
2017-Nov-10 02:01N 32°07' W 091°03'3 6.4
2017-Nov-10 01:30N 32°09' W 091°00'4 8.2
2017-Nov-10 01:01N 32°13' W 090°59'4 7.8
2017-Nov-10 00:31N 32°17' W 090°57'4 7.6
2017-Nov-10 00:00N 32°20' W 090°54'1 2.7
2017-Nov-09 23:31N 32°21' W 090°55'4 7.1
2017-Nov-09 23:01N 32°21' W 090°59'3 6.6
2017-Nov-09 22:31N 32°24' W 090°59'4 7.5
2017-Nov-09 22:01N 32°26' W 091°03'4 7.6
2017-Nov-09 21:30N 32°29' W 091°07'4 7.9
2017-Nov-09 20:58N 32°33' W 091°06'3 6.5
2017-Nov-09 20:31N 32°35' W 091°08'  

Dump ship's entire track history